sensor_id;sensor_type;location;lat;lon;timestamp;temperature;humidity
76577;DHT22;65441;44.748;37.600;2022-12-07T00:01:45;5.95;78.81
76577;DHT22;65441;44.748;37.600;2022-12-07T00:04:16;5.79;78.93
76577;DHT22;65441;44.748;37.600;2022-12-07T00:06:51;5.77;78.28
76577;DHT22;65441;44.748;37.600;2022-12-07T00:09:22;5.67;79.77
76577;DHT22;65441;44.748;37.600;2022-12-07T00:11:51;5.59;78.86
76577;DHT22;65441;44.748;37.600;2022-12-07T00:14:20;5.52;80.10
76577;DHT22;65441;44.748;37.600;2022-12-07T00:16:50;5.49;85.53
76577;DHT22;65441;44.748;37.600;2022-12-07T00:19:19;5.49;84.35
76577;DHT22;65441;44.748;37.600;2022-12-07T00:21:48;5.53;80.27
76577;DHT22;65441;44.748;37.600;2022-12-07T00:24:17;5.46;79.76
76577;DHT22;65441;44.748;37.600;2022-12-07T00:26:48;5.30;81.35
76577;DHT22;65441;44.748;37.600;2022-12-07T00:29:18;5.20;83.30
76577;DHT22;65441;44.748;37.600;2022-12-07T00:31:48;5.23;82.10
76577;DHT22;65441;44.748;37.600;2022-12-07T00:34:19;5.21;83.37
76577;DHT22;65441;44.748;37.600;2022-12-07T00:36:48;5.18;80.26
76577;DHT22;65441;44.748;37.600;2022-12-07T00:39:17;5.10;79.88
76577;DHT22;65441;44.748;37.600;2022-12-07T00:41:47;5.06;80.82
76577;DHT22;65441;44.748;37.600;2022-12-07T00:44:16;4.98;79.96
76577;DHT22;65441;44.748;37.600;2022-12-07T00:46:45;4.92;78.40
76577;DHT22;65441;44.748;37.600;2022-12-07T00:49:14;4.87;81.45
76577;DHT22;65441;44.748;37.600;2022-12-07T00:51:43;4.82;81.16
76577;DHT22;65441;44.748;37.600;2022-12-07T00:54:12;4.82;79.33
76577;DHT22;65441;44.748;37.600;2022-12-07T00:56:41;4.81;80.62
76577;DHT22;65441;44.748;37.600;2022-12-07T00:59:13;4.66;82.68
76577;DHT22;65441;44.748;37.600;2022-12-07T01:01:42;4.67;80.91
76577;DHT22;65441;44.748;37.600;2022-12-07T01:04:11;4.73;80.27
76577;DHT22;65441;44.748;37.600;2022-12-07T01:06:40;4.62;80.31
76577;DHT22;65441;44.748;37.600;2022-12-07T01:09:09;4.54;80.43
76577;DHT22;65441;44.748;37.600;2022-12-07T01:11:38;4.52;82.01
76577;DHT22;65441;44.748;37.600;2022-12-07T01:14:06;4.46;81.00
76577;DHT22;65441;44.748;37.600;2022-12-07T01:16:38;4.37;81.32
76577;DHT22;65441;44.748;37.600;2022-12-07T01:19:07;4.45;82.36
76577;DHT22;65441;44.748;37.600;2022-12-07T01:21:36;4.41;83.79
76577;DHT22;65441;44.748;37.600;2022-12-07T01:24:09;4.48;83.55
76577;DHT22;65441;44.748;37.600;2022-12-07T01:26:38;4.52;84.11
76577;DHT22;65441;44.748;37.600;2022-12-07T01:29:07;4.66;87.98
76577;DHT22;65441;44.748;37.600;2022-12-07T01:31:37;4.78;85.73
76577;DHT22;65441;44.748;37.600;2022-12-07T01:34:06;4.81;83.68
76577;DHT22;65441;44.748;37.600;2022-12-07T01:36:36;4.86;83.41
76577;DHT22;65441;44.748;37.600;2022-12-07T01:39:07;4.91;84.00
76577;DHT22;65441;44.748;37.600;2022-12-07T01:41:38;4.97;83.35
76577;DHT22;65441;44.748;37.600;2022-12-07T01:44:11;5.07;83.04
76577;DHT22;65441;44.748;37.600;2022-12-07T01:46:42;5.07;83.70
76577;DHT22;65441;44.748;37.600;2022-12-07T01:49:16;5.15;83.98
76577;DHT22;65441;44.748;37.600;2022-12-07T01:51:46;5.26;84.20
76577;DHT22;65441;44.748;37.600;2022-12-07T01:54:16;5.26;85.20
76577;DHT22;65441;44.748;37.600;2022-12-07T01:56:50;5.37;84.87
76577;DHT22;65441;44.748;37.600;2022-12-07T01:59:22;5.46;84.35
76577;DHT22;65441;44.748;37.600;2022-12-07T02:01:54;5.45;84.28
76577;DHT22;65441;44.748;37.600;2022-12-07T02:04:24;5.41;84.79
76577;DHT22;65441;44.748;37.600;2022-12-07T02:06:54;5.46;85.05
76577;DHT22;65441;44.748;37.600;2022-12-07T02:09:23;5.46;84.30
76577;DHT22;65441;44.748;37.600;2022-12-07T02:11:52;5.50;85.30
76577;DHT22;65441;44.748;37.600;2022-12-07T02:14:22;5.57;84.78
76577;DHT22;65441;44.748;37.600;2022-12-07T02:17:03;5.60;87.04
76577;DHT22;65441;44.748;37.600;2022-12-07T02:20:11;5.60;88.47
76577;DHT22;65441;44.748;37.600;2022-12-07T02:25:38;5.70;86.09
76577;DHT22;65441;44.748;37.600;2022-12-07T02:28:14;5.75;86.98
76577;DHT22;65441;44.748;37.600;2022-12-07T02:30:50;5.81;86.01
76577;DHT22;65441;44.748;37.600;2022-12-07T02:33:25;5.85;84.12
76577;DHT22;65441;44.748;37.600;2022-12-07T02:36:00;5.92;83.82
76577;DHT22;65441;44.748;37.600;2022-12-07T02:38:37;5.95;83.29
76577;DHT22;65441;44.748;37.600;2022-12-07T02:41:11;5.90;84.24
76577;DHT22;65441;44.748;37.600;2022-12-07T02:43:42;5.74;87.20
76577;DHT22;65441;44.748;37.600;2022-12-07T02:46:16;5.89;87.09
76577;DHT22;65441;44.748;37.600;2022-12-07T02:48:46;6.01;87.19
76577;DHT22;65441;44.748;37.600;2022-12-07T02:51:17;6.00;88.56
76577;DHT22;65441;44.748;37.600;2022-12-07T02:53:46;6.20;88.79
76577;DHT22;65441;44.748;37.600;2022-12-07T02:56:26;6.28;87.70
76577;DHT22;65441;44.748;37.600;2022-12-07T02:59:07;6.40;85.01
76577;DHT22;65441;44.748;37.600;2022-12-07T03:01:50;6.42;84.79
76577;DHT22;65441;44.748;37.600;2022-12-07T03:04:41;6.34;84.42
76577;DHT22;65441;44.748;37.600;2022-12-07T03:07:20;6.35;84.67
76577;DHT22;65441;44.748;37.600;2022-12-07T03:09:55;6.30;86.52
76577;DHT22;65441;44.748;37.600;2022-12-07T03:12:32;6.30;87.74
76577;DHT22;65441;44.748;37.600;2022-12-07T03:15:05;6.38;85.78
76577;DHT22;65441;44.748;37.600;2022-12-07T03:17:40;6.40;85.49
76577;DHT22;65441;44.748;37.600;2022-12-07T03:20:13;6.45;85.79
76577;DHT22;65441;44.748;37.600;2022-12-07T03:22:44;6.49;86.37
76577;DHT22;65441;44.748;37.600;2022-12-07T03:25:15;6.64;89.21
76577;DHT22;65441;44.748;37.600;2022-12-07T03:27:48;6.74;88.87
76577;DHT22;65441;44.748;37.600;2022-12-07T03:30:22;6.96;93.61
76577;DHT22;65441;44.748;37.600;2022-12-07T03:32:59;7.17;93.88
76577;DHT22;65441;44.748;37.600;2022-12-07T03:35:32;7.40;94.68
76577;DHT22;65441;44.748;37.600;2022-12-07T03:38:10;7.46;90.82
76577;DHT22;65441;44.748;37.600;2022-12-07T03:40:44;7.39;89.42
76577;DHT22;65441;44.748;37.600;2022-12-07T03:43:18;7.37;88.26
76577;DHT22;65441;44.748;37.600;2022-12-07T03:45:56;7.59;93.44
76577;DHT22;65441;44.748;37.600;2022-12-07T03:48:34;7.74;93.55
76577;DHT22;65441;44.748;37.600;2022-12-07T03:51:13;7.92;95.48
76577;DHT22;65441;44.748;37.600;2022-12-07T03:53:46;8.07;95.81
76577;DHT22;65441;44.748;37.600;2022-12-07T03:56:17;8.21;95.30
76577;DHT22;65441;44.748;37.600;2022-12-07T03:58:47;8.28;94.94
76577;DHT22;65441;44.748;37.600;2022-12-07T04:01:17;8.35;94.64
76577;DHT22;65441;44.748;37.600;2022-12-07T04:03:48;8.43;94.20
76577;DHT22;65441;44.748;37.600;2022-12-07T04:06:17;8.47;94.10
76577;DHT22;65441;44.748;37.600;2022-12-07T04:08:46;8.50;93.66
76577;DHT22;65441;44.748;37.600;2022-12-07T04:11:14;8.55;93.43
76577;DHT22;65441;44.748;37.600;2022-12-07T04:13:43;8.53;92.79
76577;DHT22;65441;44.748;37.600;2022-12-07T04:16:29;8.59;92.25
76577;DHT22;65441;44.748;37.600;2022-12-07T04:19:02;8.63;92.81
76577;DHT22;65441;44.748;37.600;2022-12-07T04:21:31;8.62;93.25
76577;DHT22;65441;44.748;37.600;2022-12-07T04:23:59;8.62;93.27
76577;DHT22;65441;44.748;37.600;2022-12-07T04:26:32;8.62;93.11
76577;DHT22;65441;44.748;37.600;2022-12-07T04:29:00;8.68;92.66
76577;DHT22;65441;44.748;37.600;2022-12-07T04:31:29;8.70;92.21
76577;DHT22;65441;44.748;37.600;2022-12-07T04:33:58;8.74;92.25
76577;DHT22;65441;44.748;37.600;2022-12-07T04:36:35;8.67;93.14
76577;DHT22;65441;44.748;37.600;2022-12-07T04:39:05;8.68;92.60
76577;DHT22;65441;44.748;37.600;2022-12-07T04:41:34;8.72;92.62
76577;DHT22;65441;44.748;37.600;2022-12-07T04:44:04;8.68;92.97
76577;DHT22;65441;44.748;37.600;2022-12-07T04:46:34;8.62;92.68
76577;DHT22;65441;44.748;37.600;2022-12-07T04:49:03;8.61;92.59
76577;DHT22;65441;44.748;37.600;2022-12-07T04:51:33;8.61;92.76
76577;DHT22;65441;44.748;37.600;2022-12-07T04:54:02;8.64;92.76
76577;DHT22;65441;44.748;37.600;2022-12-07T04:56:31;8.63;93.27
76577;DHT22;65441;44.748;37.600;2022-12-07T04:59:02;8.65;93.30
76577;DHT22;65441;44.748;37.600;2022-12-07T05:01:31;8.62;93.46
76577;DHT22;65441;44.748;37.600;2022-12-07T05:04:00;8.60;93.44
76577;DHT22;65441;44.748;37.600;2022-12-07T05:06:29;8.65;93.30
76577;DHT22;65441;44.748;37.600;2022-12-07T05:08:59;8.66;93.43
76577;DHT22;65441;44.748;37.600;2022-12-07T05:11:28;8.72;93.00
76577;DHT22;65441;44.748;37.600;2022-12-07T05:14:10;8.71;93.17
76577;DHT22;65441;44.748;37.600;2022-12-07T05:16:40;8.67;93.75
76577;DHT22;65441;44.748;37.600;2022-12-07T05:19:09;8.71;93.82
76577;DHT22;65441;44.748;37.600;2022-12-07T05:21:39;8.77;93.46
76577;DHT22;65441;44.748;37.600;2022-12-07T05:24:12;8.80;93.41
76577;DHT22;65441;44.748;37.600;2022-12-07T05:26:41;8.81;93.34
76577;DHT22;65441;44.748;37.600;2022-12-07T05:29:11;8.80;93.28
76577;DHT22;65441;44.748;37.600;2022-12-07T05:31:40;8.80;93.13
76577;DHT22;65441;44.748;37.600;2022-12-07T05:34:11;8.83;92.76
76577;DHT22;65441;44.748;37.600;2022-12-07T05:36:40;8.91;92.56
76577;DHT22;65441;44.748;37.600;2022-12-07T05:39:12;8.95;92.43
76577;DHT22;65441;44.748;37.600;2022-12-07T05:41:40;8.91;92.22
76577;DHT22;65441;44.748;37.600;2022-12-07T05:44:26;9.01;92.34
76577;DHT22;65441;44.748;37.600;2022-12-07T05:46:55;9.03;91.91
76577;DHT22;65441;44.748;37.600;2022-12-07T05:49:24;9.04;91.82
76577;DHT22;65441;44.748;37.600;2022-12-07T05:51:52;9.05;91.46
76577;DHT22;65441;44.748;37.600;2022-12-07T05:54:23;9.08;91.13
76577;DHT22;65441;44.748;37.600;2022-12-07T05:56:51;9.06;90.79
76577;DHT22;65441;44.748;37.600;2022-12-07T05:59:20;9.04;90.55
76577;DHT22;65441;44.748;37.600;2022-12-07T06:01:51;9.09;90.77
76577;DHT22;65441;44.748;37.600;2022-12-07T06:04:21;9.05;90.98
76577;DHT22;65441;44.748;37.600;2022-12-07T06:06:50;9.04;91.15
76577;DHT22;65441;44.748;37.600;2022-12-07T06:09:20;9.09;90.68
76577;DHT22;65441;44.748;37.600;2022-12-07T06:11:50;9.08;90.18
76577;DHT22;65441;44.748;37.600;2022-12-07T06:14:36;9.10;88.61
76577;DHT22;65441;44.748;37.600;2022-12-07T06:17:05;9.19;89.81
76577;DHT22;65441;44.748;37.600;2022-12-07T06:19:34;9.21;89.06
76577;DHT22;65441;44.748;37.600;2022-12-07T06:22:03;9.12;88.91
76577;DHT22;65441;44.748;37.600;2022-12-07T06:24:33;9.15;89.70
76577;DHT22;65441;44.748;37.600;2022-12-07T06:27:03;9.09;89.16
76577;DHT22;65441;44.748;37.600;2022-12-07T06:29:32;9.06;89.61
76577;DHT22;65441;44.748;37.600;2022-12-07T06:32:01;9.11;89.59
76577;DHT22;65441;44.748;37.600;2022-12-07T06:34:30;9.21;89.54
76577;DHT22;65441;44.748;37.600;2022-12-07T06:36:59;9.32;88.40
76577;DHT22;65441;44.748;37.600;2022-12-07T06:39:29;9.36;88.14
76577;DHT22;65441;44.748;37.600;2022-12-07T06:41:59;9.36;89.08
76577;DHT22;65441;44.748;37.600;2022-12-07T06:44:29;9.46;88.81
76577;DHT22;65441;44.748;37.600;2022-12-07T06:46:58;9.50;88.98
76577;DHT22;65441;44.748;37.600;2022-12-07T06:49:26;9.49;89.41
76577;DHT22;65441;44.748;37.600;2022-12-07T06:51:55;9.44;89.66
76577;DHT22;65441;44.748;37.600;2022-12-07T06:54:24;9.50;90.23
76577;DHT22;65441;44.748;37.600;2022-12-07T06:56:53;9.65;89.90
76577;DHT22;65441;44.748;37.600;2022-12-07T06:59:21;9.74;90.13
76577;DHT22;65441;44.748;37.600;2022-12-07T07:01:52;9.96;89.35
76577;DHT22;65441;44.748;37.600;2022-12-07T07:04:20;10.11;88.51
76577;DHT22;65441;44.748;37.600;2022-12-07T07:06:49;10.30;88.47
76577;DHT22;65441;44.748;37.600;2022-12-07T07:09:18;11.46;85.25
76577;DHT22;65441;44.748;37.600;2022-12-07T07:11:47;11.72;82.78
76577;DHT22;65441;44.748;37.600;2022-12-07T07:14:16;11.45;83.95
76577;DHT22;65441;44.748;37.600;2022-12-07T07:16:46;11.19;84.39
76577;DHT22;65441;44.748;37.600;2022-12-07T07:19:16;11.07;84.10
76577;DHT22;65441;44.748;37.600;2022-12-07T07:21:45;10.96;85.21
76577;DHT22;65441;44.748;37.600;2022-12-07T07:24:13;10.98;85.26
76577;DHT22;65441;44.748;37.600;2022-12-07T07:26:42;11.56;82.38
76577;DHT22;65441;44.748;37.600;2022-12-07T07:29:11;12.26;82.10
76577;DHT22;65441;44.748;37.600;2022-12-07T07:31:40;12.32;78.79
76577;DHT22;65441;44.748;37.600;2022-12-07T07:34:09;12.50;79.37
76577;DHT22;65441;44.748;37.600;2022-12-07T07:36:39;12.58;79.78
76577;DHT22;65441;44.748;37.600;2022-12-07T07:39:09;12.90;77.90
76577;DHT22;65441;44.748;37.600;2022-12-07T07:41:39;13.00;78.73
76577;DHT22;65441;44.748;37.600;2022-12-07T07:44:13;13.24;76.82
76577;DHT22;65441;44.748;37.600;2022-12-07T07:46:42;13.41;77.29
76577;DHT22;65441;44.748;37.600;2022-12-07T07:49:11;13.18;75.79
76577;DHT22;65441;44.748;37.600;2022-12-07T07:51:41;13.29;75.15
76577;DHT22;65441;44.748;37.600;2022-12-07T07:54:10;13.07;75.84
76577;DHT22;65441;44.748;37.600;2022-12-07T07:56:39;13.07;75.47
76577;DHT22;65441;44.748;37.600;2022-12-07T07:59:07;13.17;75.18
76577;DHT22;65441;44.748;37.600;2022-12-07T08:01:36;13.10;75.95
76577;DHT22;65441;44.748;37.600;2022-12-07T08:04:05;12.90;76.16
76577;DHT22;65441;44.748;37.600;2022-12-07T08:06:34;12.70;76.82
76577;DHT22;65441;44.748;37.600;2022-12-07T08:09:05;12.72;78.30
76577;DHT22;65441;44.748;37.600;2022-12-07T08:11:33;12.84;78.09
76577;DHT22;65441;44.748;37.600;2022-12-07T08:14:03;12.96;76.30
76577;DHT22;65441;44.748;37.600;2022-12-07T08:16:32;12.93;76.49
76577;DHT22;65441;44.748;37.600;2022-12-07T08:19:01;12.95;78.08
76577;DHT22;65441;44.748;37.600;2022-12-07T08:21:29;13.08;77.14
76577;DHT22;65441;44.748;37.600;2022-12-07T08:23:58;13.08;76.24
76577;DHT22;65441;44.748;37.600;2022-12-07T08:26:29;13.08;75.58
76577;DHT22;65441;44.748;37.600;2022-12-07T08:28:57;12.66;76.79
76577;DHT22;65441;44.748;37.600;2022-12-07T08:31:26;12.41;77.44
76577;DHT22;65441;44.748;37.600;2022-12-07T08:33:56;12.12;78.31
76577;DHT22;65441;44.748;37.600;2022-12-07T08:36:25;11.82;79.75
76577;DHT22;65441;44.748;37.600;2022-12-07T08:38:54;11.49;81.25
76577;DHT22;65441;44.748;37.600;2022-12-07T08:41:23;11.54;81.33
76577;DHT22;65441;44.748;37.600;2022-12-07T08:43:53;11.54;81.24
76577;DHT22;65441;44.748;37.600;2022-12-07T08:46:26;11.59;81.92
76577;DHT22;65441;44.748;37.600;2022-12-07T08:48:58;11.69;82.05
76577;DHT22;65441;44.748;37.600;2022-12-07T08:51:30;11.64;81.68
76577;DHT22;65441;44.748;37.600;2022-12-07T08:54:02;11.54;82.01
76577;DHT22;65441;44.748;37.600;2022-12-07T08:56:32;11.46;82.22
76577;DHT22;65441;44.748;37.600;2022-12-07T08:59:03;11.36;83.32
76577;DHT22;65441;44.748;37.600;2022-12-07T09:01:33;11.46;84.11
76577;DHT22;65441;44.748;37.600;2022-12-07T09:04:01;11.36;84.58
76577;DHT22;65441;44.748;37.600;2022-12-07T09:06:30;11.16;86.47
76577;DHT22;65441;44.748;37.600;2022-12-07T09:09:00;11.13;87.23
76577;DHT22;65441;44.748;37.600;2022-12-07T09:11:30;10.88;88.50
76577;DHT22;65441;44.748;37.600;2022-12-07T09:13:58;10.74;89.09
76577;DHT22;65441;44.748;37.600;2022-12-07T09:16:29;10.59;89.64
76577;DHT22;65441;44.748;37.600;2022-12-07T09:18:58;10.62;89.44
76577;DHT22;65441;44.748;37.600;2022-12-07T09:21:26;10.64;88.96
76577;DHT22;65441;44.748;37.600;2022-12-07T09:23:55;10.64;88.73
76577;DHT22;65441;44.748;37.600;2022-12-07T09:26:24;10.66;88.70
76577;DHT22;65441;44.748;37.600;2022-12-07T09:28:53;10.73;88.54
76577;DHT22;65441;44.748;37.600;2022-12-07T09:31:21;10.71;89.01
76577;DHT22;65441;44.748;37.600;2022-12-07T09:33:54;10.71;86.70
76577;DHT22;65441;44.748;37.600;2022-12-07T09:36:24;10.71;87.28
76577;DHT22;65441;44.748;37.600;2022-12-07T09:38:53;10.68;86.50
76577;DHT22;65441;44.748;37.600;2022-12-07T09:41:23;10.40;85.56
76577;DHT22;65441;44.748;37.600;2022-12-07T09:43:52;10.20;86.67
76577;DHT22;65441;44.748;37.600;2022-12-07T09:46:23;10.11;85.93
76577;DHT22;65441;44.748;37.600;2022-12-07T09:48:53;10.00;86.11
76577;DHT22;65441;44.748;37.600;2022-12-07T09:51:23;10.22;87.19
76577;DHT22;65441;44.748;37.600;2022-12-07T09:53:54;10.26;86.68
76577;DHT22;65441;44.748;37.600;2022-12-07T09:56:24;10.40;88.14
76577;DHT22;65441;44.748;37.600;2022-12-07T09:58:58;10.36;84.56
76577;DHT22;65441;44.748;37.600;2022-12-07T10:01:30;10.45;85.42
76577;DHT22;65441;44.748;37.600;2022-12-07T10:04:08;10.62;87.38
76577;DHT22;65441;44.748;37.600;2022-12-07T10:06:38;10.70;87.13
76577;DHT22;65441;44.748;37.600;2022-12-07T10:09:11;10.66;85.32
76577;DHT22;65441;44.748;37.600;2022-12-07T10:12:02;10.65;81.51
76577;DHT22;65441;44.748;37.600;2022-12-07T10:14:33;10.79;84.27
76577;DHT22;65441;44.748;37.600;2022-12-07T10:17:01;10.89;83.75
76577;DHT22;65441;44.748;37.600;2022-12-07T10:19:32;10.87;83.42
76577;DHT22;65441;44.748;37.600;2022-12-07T10:22:10;10.80;85.03
76577;DHT22;65441;44.748;37.600;2022-12-07T10:24:39;10.89;86.15
76577;DHT22;65441;44.748;37.600;2022-12-07T10:27:19;10.96;84.77
76577;DHT22;65441;44.748;37.600;2022-12-07T10:29:49;10.85;83.65
76577;DHT22;65441;44.748;37.600;2022-12-07T10:32:31;10.90;83.97
76577;DHT22;65441;44.748;37.600;2022-12-07T10:35:21;11.07;86.05
76577;DHT22;65441;44.748;37.600;2022-12-07T10:37:52;11.08;87.20
76577;DHT22;65441;44.748;37.600;2022-12-07T10:40:28;11.05;87.61
76577;DHT22;65441;44.748;37.600;2022-12-07T10:43:03;11.15;86.93
76577;DHT22;65441;44.748;37.600;2022-12-07T10:45:34;11.15;87.12
76577;DHT22;65441;44.748;37.600;2022-12-07T10:48:10;11.20;86.27
76577;DHT22;65441;44.748;37.600;2022-12-07T10:50:55;11.15;83.52
76577;DHT22;65441;44.748;37.600;2022-12-07T10:53:33;11.15;84.90
76577;DHT22;65441;44.748;37.600;2022-12-07T10:56:16;11.14;82.23
76577;DHT22;65441;44.748;37.600;2022-12-07T10:58:57;11.14;83.97
76577;DHT22;65441;44.748;37.600;2022-12-07T11:01:33;11.16;85.26
76577;DHT22;65441;44.748;37.600;2022-12-07T11:04:12;11.23;86.11
76577;DHT22;65441;44.748;37.600;2022-12-07T11:06:51;11.18;83.98
76577;DHT22;65441;44.748;37.600;2022-12-07T11:09:47;11.30;84.83
76577;DHT22;65441;44.748;37.600;2022-12-07T11:12:28;11.39;85.13
76577;DHT22;65441;44.748;37.600;2022-12-07T11:15:01;11.47;84.32
76577;DHT22;65441;44.748;37.600;2022-12-07T11:17:36;11.57;85.49
76577;DHT22;65441;44.748;37.600;2022-12-07T11:20:19;11.62;85.56
76577;DHT22;65441;44.748;37.600;2022-12-07T11:23:02;11.66;83.75
76577;DHT22;65441;44.748;37.600;2022-12-07T11:25:32;11.72;85.90
76577;DHT22;65441;44.748;37.600;2022-12-07T11:28:14;11.82;84.91
76577;DHT22;65441;44.748;37.600;2022-12-07T11:30:51;11.86;85.13
76577;DHT22;65441;44.748;37.600;2022-12-07T11:33:29;11.77;84.81
76577;DHT22;65441;44.748;37.600;2022-12-07T11:36:09;11.87;85.93
76577;DHT22;65441;44.748;37.600;2022-12-07T11:38:49;12.03;86.51
76577;DHT22;65441;44.748;37.600;2022-12-07T11:41:23;12.15;85.20
76577;DHT22;65441;44.748;37.600;2022-12-07T11:43:56;12.17;85.13
76577;DHT22;65441;44.748;37.600;2022-12-07T11:46:40;11.90;82.70
76577;DHT22;65441;44.748;37.600;2022-12-07T11:49:15;11.73;84.32
76577;DHT22;65441;44.748;37.600;2022-12-07T11:51:51;11.69;84.90
76577;DHT22;65441;44.748;37.600;2022-12-07T11:54:26;11.56;84.90
76577;DHT22;65441;44.748;37.600;2022-12-07T11:57:01;11.57;85.06
76577;DHT22;65441;44.748;37.600;2022-12-07T11:59:38;11.55;85.48
76577;DHT22;65441;44.748;37.600;2022-12-07T12:02:13;11.58;86.36
76577;DHT22;65441;44.748;37.600;2022-12-07T12:04:50;11.68;85.98
76577;DHT22;65441;44.748;37.600;2022-12-07T12:07:22;11.69;86.13
76577;DHT22;65441;44.748;37.600;2022-12-07T12:09:55;11.83;86.29
76577;DHT22;65441;44.748;37.600;2022-12-07T12:12:43;11.90;86.59
76577;DHT22;65441;44.748;37.600;2022-12-07T12:15:29;11.97;85.79
76577;DHT22;65441;44.748;37.600;2022-12-07T12:21:08;11.93;85.69
76577;DHT22;65441;44.748;37.600;2022-12-07T12:23:42;11.90;85.32
76577;DHT22;65441;44.748;37.600;2022-12-07T12:26:18;11.76;84.82
76577;DHT22;65441;44.748;37.600;2022-12-07T12:28:54;11.81;85.94
76577;DHT22;65441;44.748;37.600;2022-12-07T12:31:33;11.83;85.91
76577;DHT22;65441;44.748;37.600;2022-12-07T12:36:48;11.86;87.13
76577;DHT22;65441;44.748;37.600;2022-12-07T12:39:18;11.86;86.75
76577;DHT22;65441;44.748;37.600;2022-12-07T12:41:57;11.84;86.35
76577;DHT22;65441;44.748;37.600;2022-12-07T12:47:43;11.92;86.85
76577;DHT22;65441;44.748;37.600;2022-12-07T12:50:22;11.91;84.76
76577;DHT22;65441;44.748;37.600;2022-12-07T12:53:12;11.93;85.40
76577;DHT22;65441;44.748;37.600;2022-12-07T12:59:19;11.81;84.94
76577;DHT22;65441;44.748;37.600;2022-12-07T13:01:42;11.83;85.48
76577;DHT22;65441;44.748;37.600;2022-12-07T13:07:01;11.78;85.06
76577;DHT22;65441;44.748;37.600;2022-12-07T13:09:33;11.74;85.22
76577;DHT22;65441;44.748;37.600;2022-12-07T13:12:04;11.78;85.68
76577;DHT22;65441;44.748;37.600;2022-12-07T13:14:53;11.79;85.35
76577;DHT22;65441;44.748;37.600;2022-12-07T13:18:03;11.74;85.61
76577;DHT22;65441;44.748;37.600;2022-12-07T13:20:53;11.66;85.38
76577;DHT22;65441;44.748;37.600;2022-12-07T13:23:29;11.68;85.01
76577;DHT22;65441;44.748;37.600;2022-12-07T13:26:05;11.71;85.23
76577;DHT22;65441;44.748;37.600;2022-12-07T13:28:39;11.68;85.58
76577;DHT22;65441;44.748;37.600;2022-12-07T13:31:25;11.73;85.49
76577;DHT22;65441;44.748;37.600;2022-12-07T13:33:59;11.76;85.43
76577;DHT22;65441;44.748;37.600;2022-12-07T13:36:30;11.69;85.12
76577;DHT22;65441;44.748;37.600;2022-12-07T13:39:17;11.69;85.09
76577;DHT22;65441;44.748;37.600;2022-12-07T13:41:51;11.57;86.07
76577;DHT22;65441;44.748;37.600;2022-12-07T13:44:21;11.46;86.29
76577;DHT22;65441;44.748;37.600;2022-12-07T13:46:55;11.51;86.38
76577;DHT22;65441;44.748;37.600;2022-12-07T13:49:27;11.45;86.36
76577;DHT22;65441;44.748;37.600;2022-12-07T13:52:13;11.29;86.43
76577;DHT22;65441;44.748;37.600;2022-12-07T13:54:47;11.16;86.71
76577;DHT22;65441;44.748;37.600;2022-12-07T13:57:17;11.22;86.60
76577;DHT22;65441;44.748;37.600;2022-12-07T13:59:46;11.25;85.80
76577;DHT22;65441;44.748;37.600;2022-12-07T14:02:26;11.20;85.55
76577;DHT22;65441;44.748;37.600;2022-12-07T14:05:07;11.19;85.79
76577;DHT22;65441;44.748;37.600;2022-12-07T14:07:49;11.15;85.43
76577;DHT22;65441;44.748;37.600;2022-12-07T14:10:25;11.13;85.77
76577;DHT22;65441;44.748;37.600;2022-12-07T14:12:56;11.11;85.61
76577;DHT22;65441;44.748;37.600;2022-12-07T14:15:28;11.10;85.21
76577;DHT22;65441;44.748;37.600;2022-12-07T14:18:00;11.11;85.32
76577;DHT22;65441;44.748;37.600;2022-12-07T14:20:32;11.07;84.97
76577;DHT22;65441;44.748;37.600;2022-12-07T14:23:01;11.08;85.59
76577;DHT22;65441;44.748;37.600;2022-12-07T14:25:45;11.02;84.81
76577;DHT22;65441;44.748;37.600;2022-12-07T14:28:26;11.00;84.49
76577;DHT22;65441;44.748;37.600;2022-12-07T14:30:55;10.95;84.46
76577;DHT22;65441;44.748;37.600;2022-12-07T14:33:26;10.85;84.56
76577;DHT22;65441;44.748;37.600;2022-12-07T14:35:56;10.81;84.90
76577;DHT22;65441;44.748;37.600;2022-12-07T14:38:25;10.70;84.19
76577;DHT22;65441;44.748;37.600;2022-12-07T14:40:55;10.70;84.70
76577;DHT22;65441;44.748;37.600;2022-12-07T14:43:45;10.58;84.94
76577;DHT22;65441;44.748;37.600;2022-12-07T14:46:14;10.57;85.12
76577;DHT22;65441;44.748;37.600;2022-12-07T14:48:44;10.56;84.80
76577;DHT22;65441;44.748;37.600;2022-12-07T14:51:13;10.45;85.87
76577;DHT22;65441;44.748;37.600;2022-12-07T14:53:44;10.43;86.39
76577;DHT22;65441;44.748;37.600;2022-12-07T14:56:14;10.40;86.21
76577;DHT22;65441;44.748;37.600;2022-12-07T14:58:43;10.39;85.88
76577;DHT22;65441;44.748;37.600;2022-12-07T15:01:15;10.36;85.55
76577;DHT22;65441;44.748;37.600;2022-12-07T15:03:45;10.33;86.45
76577;DHT22;65441;44.748;37.600;2022-12-07T15:06:16;10.27;86.24
76577;DHT22;65441;44.748;37.600;2022-12-07T15:08:45;10.29;86.77
76577;DHT22;65441;44.748;37.600;2022-12-07T15:11:15;10.29;86.99
76577;DHT22;65441;44.748;37.600;2022-12-07T15:13:44;10.37;86.08
76577;DHT22;65441;44.748;37.600;2022-12-07T15:16:29;10.37;85.84
76577;DHT22;65441;44.748;37.600;2022-12-07T15:18:59;10.30;85.61
76577;DHT22;65441;44.748;37.600;2022-12-07T15:21:29;10.26;85.79
76577;DHT22;65441;44.748;37.600;2022-12-07T15:23:57;10.22;85.65
76577;DHT22;65441;44.748;37.600;2022-12-07T15:26:26;10.22;85.22
76577;DHT22;65441;44.748;37.600;2022-12-07T15:28:55;10.24;84.85
76577;DHT22;65441;44.748;37.600;2022-12-07T15:31:24;10.22;85.27
76577;DHT22;65441;44.748;37.600;2022-12-07T15:33:53;10.24;85.03
76577;DHT22;65441;44.748;37.600;2022-12-07T15:36:25;10.13;85.24
76577;DHT22;65441;44.748;37.600;2022-12-07T15:38:55;10.08;84.81
76577;DHT22;65441;44.748;37.600;2022-12-07T15:41:24;10.00;85.34
76577;DHT22;65441;44.748;37.600;2022-12-07T15:43:53;9.97;84.68
76577;DHT22;65441;44.748;37.600;2022-12-07T15:46:40;9.90;85.45
76577;DHT22;65441;44.748;37.600;2022-12-07T15:49:12;9.89;84.84
76577;DHT22;65441;44.748;37.600;2022-12-07T15:51:43;9.88;85.43
76577;DHT22;65441;44.748;37.600;2022-12-07T15:54:17;9.89;85.31
76577;DHT22;65441;44.748;37.600;2022-12-07T15:56:47;9.82;85.00
76577;DHT22;65441;44.748;37.600;2022-12-07T15:59:16;9.84;85.51
76577;DHT22;65441;44.748;37.600;2022-12-07T16:01:44;9.85;85.27
76577;DHT22;65441;44.748;37.600;2022-12-07T16:04:13;9.84;84.78
76577;DHT22;65441;44.748;37.600;2022-12-07T16:06:43;9.79;85.16
76577;DHT22;65441;44.748;37.600;2022-12-07T16:09:12;9.72;84.18
76577;DHT22;65441;44.748;37.600;2022-12-07T16:11:41;9.66;85.64
76577;DHT22;65441;44.748;37.600;2022-12-07T16:14:10;9.71;85.21